Time;durP1;ratioP1;P1;durP2;ratioP2;P2;SDS_P1;SDS_P2;PMS_P1;PMS_P2;Temp;Humidity;BMP_temperature;BMP_pressure;BME280_temperature;BME280_humidity;BME280_pressure;Samples;Min_cycle;Max_cycle;Signal;HPM_P1;HPM_P2
2021/07/23 00:01:43;;;;;;;27.15;17.48;;;;;;;18.18;92.74;101078.97;3564522;40;20064;-48
2021/07/23 00:04:11;;;;;;;26.98;19.73;;;;;;;18.14;93.40;101080.69;3560773;40;20117;-48
2021/07/23 00:06:38;;;;;;;25.17;19.13;;;;;;;18.02;94.05;101080.66;3564718;40;20053;-49
2021/07/23 00:09:05;;;;;;;26.00;18.85;;;;;;;17.93;95.06;101078.06;3564527;40;20085;-46
2021/07/23 00:11:32;;;;;;;22.17;17.00;;;;;;;18.17;93.90;101078.13;3564563;40;20125;-50
2021/07/23 00:13:59;;;;;;;26.20;18.38;;;;;;;18.02;94.50;101072.91;3564679;40;20041;-49
2021/07/23 00:16:26;;;;;;;20.60;15.77;;;;;;;17.87;94.40;101073.75;3564428;40;20127;-48
2021/07/23 00:18:53;;;;;;;20.35;14.85;;;;;;;17.88;95.08;101078.06;3564230;40;20053;-52
2021/07/23 00:21:20;;;;;;;22.73;15.65;;;;;;;17.84;95.37;101071.16;3564009;40;20494;-50
2021/07/23 00:23:47;;;;;;;21.33;15.75;;;;;;;17.86;95.64;101073.75;3564228;40;20455;-48
2021/07/23 00:26:18;;;;;;;20.92;15.15;;;;;;;17.63;96.76;101074.53;3563896;40;20038;-48
2021/07/23 00:28:45;;;;;;;17.77;14.20;;;;;;;17.48;97.78;101074.47;3564067;40;20055;-47
2021/07/23 00:31:13;;;;;;;18.33;14.70;;;;;;;17.38;98.76;101071.00;3564201;40;20077;-48
2021/07/23 00:33:40;;;;;;;19.15;14.73;;;;;;;17.30;99.60;101072.69;3571499;40;20326;-49
2021/07/23 00:36:07;;;;;;;26.30;16.33;;;;;;;17.37;99.43;101068.38;3564228;40;20312;-49
2021/07/23 00:38:34;;;;;;;26.25;16.40;;;;;;;17.21;100.00;101068.34;3563864;40;20053;-49
2021/07/23 00:41:01;;;;;;;22.42;17.30;;;;;;;17.18;100.00;101072.63;3563882;40;20400;-48
2021/07/23 00:43:28;;;;;;;33.17;19.02;;;;;;;16.98;100.00;101062.19;3563805;40;20407;-49
2021/07/23 00:45:56;;;;;;;31.42;17.33;;;;;;;17.05;100.00;101059.66;3563991;40;20053;-49
2021/07/23 00:48:23;;;;;;;26.30;17.45;;;;;;;17.01;100.00;101057.03;3564063;40;20045;-51
2021/07/23 00:50:51;;;;;;;20.83;15.02;;;;;;;17.15;100.00;101067.44;3563786;40;20350;-46
2021/07/23 00:53:19;;;;;;;22.73;16.33;;;;;;;17.13;100.00;101063.97;3563839;40;20307;-49
2021/07/23 00:55:58;;;;;;;19.80;14.88;;;;;;;17.21;100.00;101060.56;3563774;40;20053;-51
2021/07/23 00:58:27;;;;;;;21.58;14.68;;;;;;;16.90;100.00;101062.13;3563573;40;20089;-49
2021/07/23 01:00:57;;;;;;;21.40;14.73;;;;;;;17.13;100.00;101070.00;3563669;40;20358;-47
2021/07/23 01:03:25;;;;;;;21.20;15.05;;;;;;;16.95;100.00;101060.44;3564068;40;20382;-47
2021/07/23 01:05:52;;;;;;;18.45;14.90;;;;;;;16.96;100.00;101064.78;3563734;40;20053;-48
2021/07/23 01:08:20;;;;;;;20.38;14.65;;;;;;;16.74;100.00;101068.06;3563610;40;20447;-47
2021/07/23 01:10:47;;;;;;;19.73;15.13;;;;;;;16.68;100.00;101070.56;3563658;40;20074;-50
2021/07/23 01:13:14;;;;;;;21.85;14.52;;;;;;;16.61;100.00;101063.66;3564049;40;20116;-46
2021/07/23 01:15:42;;;;;;;23.83;16.27;;;;;;;16.48;100.00;101066.13;3564168;40;20081;-46
2021/07/23 01:18:09;;;;;;;21.85;15.48;;;;;;;16.46;100.00;101062.69;3559979;40;20669;-46
2021/07/23 01:20:38;;;;;;;23.15;15.35;;;;;;;16.51;100.00;101067.88;3563416;40;20077;-47
2021/07/23 01:23:07;;;;;;;22.25;15.57;;;;;;;16.45;100.00;101060.91;3563738;40;20153;-47
2021/07/23 01:25:35;;;;;;;21.00;14.98;;;;;;;16.53;100.00;101059.28;3563713;40;20102;-49
2021/07/23 01:28:03;;;;;;;23.13;15.60;;;;;;;16.75;100.00;101052.56;3563569;40;20108;-46
2021/07/23 01:30:30;;;;;;;22.42;15.25;;;;;;;16.72;100.00;101060.28;3563599;40;20065;-46
2021/07/23 01:32:56;;;;;;;21.17;14.23;;;;;;;16.42;100.00;101060.06;3563623;40;20093;-49
2021/07/23 01:35:23;;;;;;;23.10;16.30;;;;;;;16.40;100.00;101056.56;3563987;40;20101;-48
2021/07/23 01:37:54;;;;;;;22.10;15.55;;;;;;;16.16;100.00;101052.94;3563530;40;20097;-50
2021/07/23 01:40:21;;;;;;;19.73;14.50;;;;;;;16.15;100.00;101061.56;3563431;40;20081;-49
2021/07/23 01:42:48;;;;;;;21.88;14.63;;;;;;;16.42;100.00;101054.88;3563739;40;20433;-48
2021/07/23 01:45:17;;;;;;;19.27;14.82;;;;;;;16.54;100.00;101053.22;3563782;40;20434;-52
2021/07/23 01:47:44;;;;;;;22.38;15.82;;;;;;;16.56;100.00;101050.69;3563627;40;20498;-49
2021/07/23 01:50:11;;;;;;;21.55;15.45;;;;;;;16.57;100.00;101055.00;3564005;40;20093;-51
2021/07/23 01:52:38;;;;;;;18.48;14.85;;;;;;;16.77;100.00;101044.81;3563590;40;20081;-49
2021/07/23 01:55:06;;;;;;;20.77;15.40;;;;;;;16.25;100.00;101044.41;3563741;40;20093;-48
2021/07/23 01:57:34;;;;;;;19.58;15.10;;;;;;;16.02;100.00;101042.50;3563678;40;20064;-52
2021/07/23 02:00:06;;;;;;;22.08;15.93;;;;;;;15.99;100.00;101042.47;3563562;40;20315;-50
2021/07/23 02:02:34;;;;;;;21.90;16.77;;;;;;;15.94;100.00;101044.13;3563335;40;20109;-50
2021/07/23 02:05:02;;;;;;;21.35;16.88;;;;;;;15.79;100.00;101041.41;3563584;40;20331;-49
2021/07/23 02:07:30;;;;;;;22.17;15.43;;;;;;;16.38;100.00;101040.22;3563424;40;20068;-49
2021/07/23 02:09:57;;;;;;;20.85;15.98;;;;;;;16.52;100.00;101047.19;3564783;40;20667;-50
2021/07/23 02:12:24;;;;;;;17.75;14.02;;;;;;;16.26;100.00;101048.72;3564759;40;20404;-49
2021/07/23 02:14:51;;;;;;;18.92;14.73;;;;;;;16.19;100.00;101046.94;3565255;40;20713;-49
2021/07/23 02:17:18;;;;;;;19.48;15.25;;;;;;;16.30;100.00;101037.56;3565175;40;20430;-50
2021/07/23 02:19:48;;;;;;;20.50;14.90;;;;;;;16.10;100.00;101039.13;3564721;40;20056;-48
2021/07/23 02:22:15;;;;;;;20.58;15.85;;;;;;;16.28;100.00;101037.56;3564350;40;20503;-47
2021/07/23 02:24:42;;;;;;;20.88;15.80;;;;;;;15.97;100.00;101043.31;3564850;40;20090;-52
2021/07/23 02:27:12;;;;;;;26.33;16.70;;;;;;;15.72;100.00;101040.50;3560971;40;20380;-49
2021/07/23 02:29:40;;;;;;;19.45;15.35;;;;;;;15.58;100.00;101039.44;3565313;40;20054;-49
2021/07/23 02:32:07;;;;;;;20.38;15.98;;;;;;;15.45;100.00;101032.41;3564987;40;20049;-49
2021/07/23 02:34:35;;;;;;;23.92;16.20;;;;;;;15.37;100.00;101037.47;3565291;40;20045;-51
2021/07/23 02:37:02;;;;;;;24.88;17.67;;;;;;;15.31;100.00;101027.09;3564935;40;20041;-53
2021/07/23 02:39:29;;;;;;;25.00;18.30;;;;;;;15.23;100.00;101027.00;3564765;40;20155;-52
2021/07/23 02:41:56;;;;;;;21.23;16.50;;;;;;;15.19;100.00;101034.69;3564724;40;20836;-49
2021/07/23 02:44:23;;;;;;;28.25;18.80;;;;;;;15.13;100.00;101025.16;3565143;40;20341;-49
2021/07/23 02:46:50;;;;;;;28.75;18.65;;;;;;;15.08;100.00;101019.09;3564922;40;20089;-53
2021/07/23 02:49:17;;;;;;;27.98;17.92;;;;;;;15.14;100.00;101026.88;3564992;40;20086;-49
2021/07/23 02:51:44;;;;;;;28.67;19.30;;;;;;;15.07;100.00;101017.34;3564452;40;20089;-48
2021/07/23 02:54:11;;;;;;;25.77;18.90;;;;;;;15.02;100.00;101021.56;3565057;40;20078;-48
2021/07/23 02:56:38;;;;;;;25.70;18.73;;;;;;;15.22;100.00;101021.84;3564455;40;20784;-49
2021/07/23 02:59:05;;;;;;;23.92;18.08;;;;;;;15.40;100.00;101026.34;3564450;40;20068;-50
2021/07/23 03:01:33;;;;;;;26.67;18.05;;;;;;;15.17;100.00;101026.06;3564625;40;20077;-50
2021/07/23 03:04:00;;;;;;;24.25;18.20;;;;;;;15.05;100.00;101021.63;3564773;40;20674;-49
2021/07/23 03:06:27;;;;;;;24.13;18.15;;;;;;;15.26;100.00;101024.47;3564898;40;20056;-48
2021/07/23 03:08:55;;;;;;;24.20;18.85;;;;;;;15.42;100.00;101022.06;3564411;40;20097;-52
2021/07/23 03:11:22;;;;;;;25.67;17.80;;;;;;;15.65;100.00;101022.34;3564544;40;20045;-50
2021/07/23 03:13:48;;;;;;;28.45;17.92;;;;;;;15.83;100.00;101019.06;3564835;40;20589;-52
2021/07/23 03:16:16;;;;;;;24.63;17.48;;;;;;;15.45;100.00;101017.78;3563149;40;20064;-52
2021/07/23 03:18:43;;;;;;;25.30;18.58;;;;;;;15.35;100.00;101018.56;3564974;40;20438;-50
2021/07/23 03:21:10;;;;;;;28.00;19.65;;;;;;;15.76;100.00;101010.38;3560812;40;20153;-50
2021/07/23 03:23:37;;;;;;;24.98;17.95;;;;;;;15.76;100.00;101008.69;3564787;40;20093;-52
2021/07/23 03:26:08;;;;;;;27.20;18.92;;;;;;;15.52;100.00;101005.81;3564115;40;20069;-49
2021/07/23 03:28:35;;;;;;;26.70;19.27;;;;;;;15.51;100.00;101012.69;3564096;40;20061;-49
2021/07/23 03:31:03;;;;;;;25.65;18.88;;;;;;;16.06;100.00;101001.19;3564310;40;20037;-49
2021/07/23 03:33:30;;;;;;;25.38;19.25;;;;;;;16.13;100.00;101002.94;3563818;40;20099;-50
2021/07/23 03:35:57;;;;;;;28.15;20.27;;;;;;;15.60;100.00;101004.19;3564260;40;20049;-50
2021/07/23 03:38:24;;;;;;;26.95;19.35;;;;;;;15.52;100.00;100998.94;3564915;40;20075;-51
2021/07/23 03:40:51;;;;;;;28.00;19.98;;;;;;;15.98;100.00;101003.69;3564560;40;20080;-53
2021/07/23 03:43:17;;;;;;;23.48;18.27;;;;;;;15.91;100.00;101007.97;3571915;40;20097;-49
2021/07/23 03:45:44;;;;;;;23.60;17.67;;;;;;;16.12;100.00;101011.56;3564696;40;20049;-49
2021/07/23 03:48:11;;;;;;;28.08;19.02;;;;;;;15.93;100.00;101008.81;3564789;40;20077;-49
2021/07/23 03:50:38;;;;;;;25.73;17.48;;;;;;;15.84;100.00;101010.47;3564705;40;20048;-48
2021/07/23 03:53:05;;;;;;;28.10;18.58;;;;;;;16.05;100.00;101000.31;3564734;40;20086;-53
2021/07/23 03:55:32;;;;;;;26.52;19.23;;;;;;;16.00;100.00;101002.00;3564699;40;20081;-47
2021/07/23 03:57:59;;;;;;;25.55;18.88;;;;;;;15.60;100.00;101005.91;3564737;40;20113;-49
2021/07/23 04:00:26;;;;;;;29.33;20.35;;;;;;;15.28;100.00;101007.28;3564572;40;20423;-50
2021/07/23 04:02:53;;;;;;;26.17;19.70;;;;;;;15.22;100.00;101001.19;3564310;40;20411;-51
2021/07/23 04:05:20;;;;;;;26.67;19.90;;;;;;;15.19;100.00;101003.72;3564386;40;20054;-50
2021/07/23 04:07:48;;;;;;;28.42;19.65;;;;;;;15.23;100.00;101008.94;3564387;40;20063;-49
2021/07/23 04:10:15;;;;;;;27.90;19.85;;;;;;;15.25;100.00;101011.53;3564492;40;20053;-50
2021/07/23 04:12:42;;;;;;;28.60;21.02;;;;;;;15.29;100.00;101015.88;3564840;40;20041;-49
2021/07/23 04:15:10;;;;;;;26.23;19.55;;;;;;;15.21;100.00;101009.78;3560684;40;20093;-51
2021/07/23 04:17:37;;;;;;;28.88;20.48;;;;;;;15.23;100.00;101008.06;3564320;40;20064;-50
2021/07/23 04:20:05;;;;;;;24.25;19.58;;;;;;;15.42;100.00;101006.56;3564533;40;20159;-50
2021/07/23 04:22:34;;;;;;;31.88;20.15;;;;;;;15.49;100.00;101009.25;3562022;40;20102;-53
2021/07/23 04:25:01;;;;;;;26.30;19.40;;;;;;;15.43;100.00;101016.91;3569466;40;20042;-54
2021/07/23 04:27:28;;;;;;;26.65;20.00;;;;;;;15.52;100.00;101011.84;3568693;40;20467;-52
2021/07/23 04:29:55;;;;;;;30.80;20.23;;;;;;;15.79;100.00;101013.88;3564684;40;20057;-51
2021/07/23 04:32:22;;;;;;;27.92;20.27;;;;;;;15.84;100.00;101015.63;3563749;40;20049;-51
2021/07/23 04:34:49;;;;;;;28.25;20.33;;;;;;;15.87;100.00;101010.50;3594283;23;20289;-42
2021/07/23 04:37:16;;;;;;;33.20;21.83;;;;;;;15.95;100.00;101014.03;3564245;40;20063;-42
2021/07/23 04:39:43;;;;;;;30.52;20.55;;;;;;;15.82;100.00;101013.03;3564394;40;20323;-42
2021/07/23 04:42:10;;;;;;;32.10;21.98;;;;;;;15.84;100.00;101013.91;3560688;40;20081;-42
2021/07/23 04:44:37;;;;;;;32.50;21.70;;;;;;;15.91;100.00;101010.53;3557718;40;20101;-43
2021/07/23 04:47:04;;;;;;;27.17;20.15;;;;;;;16.07;100.00;101002.91;3554445;40;20474;-42
2021/07/23 04:49:31;;;;;;;34.58;21.13;;;;;;;16.15;100.00;101009.88;3554414;40;20085;-42
2021/07/23 04:51:58;;;;;;;29.58;21.02;;;;;;;16.24;100.00;101015.13;3554541;40;20054;-43
2021/07/23 04:54:26;;;;;;;29.70;21.13;;;;;;;16.29;100.00;101022.91;3553949;40;20455;-43
2021/07/23 04:56:54;;;;;;;26.83;20.58;;;;;;;16.47;100.00;101020.47;3554926;40;20098;-43
2021/07/23 04:59:21;;;;;;;29.15;19.27;;;;;;;16.86;100.00;101021.56;3556835;40;20076;-42
2021/07/23 05:01:48;;;;;;;32.05;19.63;;;;;;;16.92;100.00;101015.59;3554340;40;20060;-42
2021/07/23 05:04:16;;;;;;;28.23;20.02;;;;;;;17.11;100.00;101019.13;3554265;40;20050;-42
2021/07/23 05:06:43;;;;;;;30.63;20.58;;;;;;;17.39;100.00;101009.72;3554811;40;20062;-42
2021/07/23 05:09:10;;;;;;;23.63;18.65;;;;;;;17.38;100.00;101008.88;3550434;40;20147;-42
2021/07/23 05:11:37;;;;;;;27.55;19.45;;;;;;;17.44;100.00;101021.81;3554313;40;20326;-42
2021/07/23 05:14:07;;;;;;;29.73;19.65;;;;;;;17.88;100.00;101017.59;3554233;40;20380;-42
2021/07/23 05:16:35;;;;;;;28.38;19.85;;;;;;;18.08;100.00;101008.13;3554174;40;20061;-42
2021/07/23 05:19:05;;;;;;;26.70;19.25;;;;;;;17.79;100.00;101016.75;3554537;40;20096;-43
2021/07/23 05:21:34;;;;;;;30.73;20.27;;;;;;;17.63;100.00;101007.19;3554342;40;20090;-42
2021/07/23 05:24:04;;;;;;;30.00;20.58;;;;;;;17.56;100.00;101003.72;3554044;40;20054;-43
2021/07/23 05:26:35;;;;;;;40.72;21.60;;;;;;;17.56;100.00;101008.91;3557951;40;20078;-43
2021/07/23 05:29:03;;;;;;;35.42;21.17;;;;;;;17.50;100.00;101001.09;3553972;40;20048;-43
2021/07/23 05:31:31;;;;;;;41.78;21.35;;;;;;;17.71;100.00;101004.63;3554298;40;20343;-42
2021/07/23 05:33:58;;;;;;;37.28;21.30;;;;;;;17.89;100.00;100990.84;3554332;40;20056;-43
2021/07/23 05:36:25;;;;;;;27.58;19.17;;;;;;;17.94;100.00;101002.94;3554526;40;20090;-42
2021/07/23 05:38:53;;;;;;;34.13;20.17;;;;;;;17.87;100.00;101000.34;3554261;40;20049;-42
2021/07/23 05:41:20;;;;;;;35.25;21.00;;;;;;;18.10;100.00;101001.19;3554035;40;20360;-42
2021/07/23 05:43:47;;;;;;;24.63;18.65;;;;;;;18.11;100.00;101007.25;3555152;40;20064;-42
2021/07/23 05:46:15;;;;;;;25.85;19.50;;;;;;;18.00;100.00;101002.94;3555810;40;20422;-43
2021/07/23 05:48:42;;;;;;;25.00;18.52;;;;;;;18.75;100.00;101004.59;3555439;40;20041;-42
2021/07/23 05:51:10;;;;;;;25.80;18.77;;;;;;;18.66;100.00;101002.00;3552912;40;20113;-42
2021/07/23 05:53:38;;;;;;;26.63;19.52;;;;;;;18.70;100.00;101002.00;3554874;40;20086;-43
2021/07/23 05:56:05;;;;;;;27.55;19.90;;;;;;;18.42;100.00;101000.31;3554920;40;20081;-44
2021/07/23 05:58:33;;;;;;;22.63;17.90;;;;;;;18.88;100.00;101003.69;3557369;40;20093;-44
2021/07/23 06:01:05;;;;;;;28.58;18.92;;;;;;;18.99;100.00;101004.50;3555445;40;20442;-43
2021/07/23 06:03:34;;;;;;;26.42;18.83;;;;;;;18.91;98.51;101005.44;3555444;40;20042;-44
2021/07/23 06:06:03;;;;;;;28.17;18.17;;;;;;;18.99;99.11;101007.09;3555475;40;20051;-42
2021/07/23 06:08:30;;;;;;;26.05;16.98;;;;;;;19.05;99.32;101006.22;3555210;40;20041;-43
2021/07/23 06:11:03;;;;;;;23.67;16.77;;;;;;;18.99;97.16;101004.50;3555587;40;20109;-43
2021/07/23 06:13:30;;;;;;;25.30;17.48;;;;;;;19.13;97.21;101013.97;3555638;40;20259;-43
2021/07/23 06:15:57;;;;;;;25.15;17.75;;;;;;;19.18;100.00;101005.31;3555482;40;20062;-43
2021/07/23 06:18:24;;;;;;;22.15;17.33;;;;;;;19.27;100.00;101009.56;3555122;40;20046;-42
2021/07/23 06:20:52;;;;;;;23.17;17.35;;;;;;;20.05;95.13;101009.94;3555285;40;20464;-44
2021/07/23 06:23:18;;;;;;;23.48;17.17;;;;;;;20.18;93.45;101009.84;3555341;40;20109;-43
2021/07/23 06:25:45;;;;;;;25.30;17.38;;;;;;;19.82;91.95;101009.25;3555318;40;20060;-42
2021/07/23 06:28:12;;;;;;;22.98;16.17;;;;;;;20.09;89.39;101006.44;3555231;40;20054;-42
2021/07/23 06:30:40;;;;;;;26.17;17.10;;;;;;;19.76;91.93;101012.78;3555094;40;20476;-43
2021/07/23 06:33:07;;;;;;;25.25;16.63;;;;;;;20.26;91.46;101008.06;3555192;40;20090;-43
2021/07/23 06:35:34;;;;;;;23.20;16.40;;;;;;;20.75;88.35;101015.38;3555411;40;20423;-43
2021/07/23 06:38:01;;;;;;;27.20;17.02;;;;;;;21.04;89.09;101017.66;3555576;40;20058;-45
2021/07/23 06:40:28;;;;;;;23.48;17.02;;;;;;;20.94;81.48;101024.72;3555348;40;20093;-43
2021/07/23 06:42:55;;;;;;;22.73;17.13;;;;;;;21.07;81.46;101031.50;3555150;40;20054;-42
2021/07/23 06:45:22;;;;;;;24.52;15.23;;;;;;;21.64;79.71;101022.97;3555113;40;20463;-44
2021/07/23 06:47:49;;;;;;;19.67;15.73;;;;;;;21.78;78.90;101014.94;3555088;40;20050;-42
2021/07/23 06:50:16;;;;;;;19.83;14.30;;;;;;;21.85;78.04;101020.03;3555093;40;20046;-43
2021/07/23 06:52:43;;;;;;;18.42;13.98;;;;;;;21.62;77.00;101019.50;3555307;40;20367;-43
2021/07/23 06:55:12;;;;;;;20.45;14.48;;;;;;;21.73;79.82;101021.97;3550827;40;20057;-43
2021/07/23 06:57:39;;;;;;;16.98;13.40;;;;;;;22.17;75.66;101015.22;3554831;40;20056;-43
2021/07/23 07:00:07;;;;;;;20.00;13.90;;;;;;;22.34;73.24;101021.00;3554925;40;20065;-43
2021/07/23 07:02:34;;;;;;;18.98;14.77;;;;;;;22.00;73.87;101016.34;3555055;40;20041;-43
2021/07/23 07:05:02;;;;;;;19.17;13.98;;;;;;;22.21;76.80;101012.53;3555204;40;20053;-43
2021/07/23 07:07:29;;;;;;;16.33;13.85;;;;;;;22.72;76.33;101016.81;3554946;40;20085;-43
2021/07/23 07:09:56;;;;;;;19.50;14.25;;;;;;;22.26;71.90;101021.13;3555129;40;20355;-43
2021/07/23 07:12:23;;;;;;;19.30;15.23;;;;;;;21.96;74.38;101019.00;3554971;40;20109;-44
2021/07/23 07:14:51;;;;;;;19.55;14.45;;;;;;;22.44;72.01;101014.72;3555365;40;20108;-43
2021/07/23 07:17:20;;;;;;;17.33;13.57;;;;;;;22.60;69.80;101017.91;3554859;40;20061;-43
2021/07/23 07:19:49;;;;;;;20.45;14.77;;;;;;;22.67;70.90;101009.06;3555296;40;20097;-43
2021/07/23 07:22:16;;;;;;;17.00;14.40;;;;;;;23.21;71.26;101014.13;3555335;40;20431;-43
2021/07/23 07:24:44;;;;;;;16.90;13.07;;;;;;;23.71;67.78;101011.25;3555343;40;20615;-43
2021/07/23 07:27:13;;;;;;;17.70;13.60;;;;;;;23.34;68.13;101012.06;3554846;40;20435;-43
2021/07/23 07:29:40;;;;;;;20.52;13.70;;;;;;;23.45;68.18;101011.84;3554870;40;20085;-43
2021/07/23 07:32:08;;;;;;;18.42;12.93;;;;;;;23.88;68.68;101011.72;3554398;40;20093;-43
2021/07/23 07:34:36;;;;;;;16.50;12.60;;;;;;;23.61;67.08;101019.28;3554654;40;20042;-43
2021/07/23 07:37:04;;;;;;;15.45;12.63;;;;;;;23.95;67.16;101015.94;3554581;40;20101;-43
2021/07/23 07:39:32;;;;;;;17.55;13.68;;;;;;;24.25;65.90;101022.13;3554644;40;20057;-43
2021/07/23 07:42:05;;;;;;;18.27;14.60;;;;;;;24.69;63.25;101027.16;3555033;40;20118;-43
2021/07/23 07:44:32;;;;;;;20.23;13.52;;;;;;;24.89;65.39;101027.44;3554760;40;20053;-43
2021/07/23 07:46:59;;;;;;;18.58;13.43;;;;;;;24.53;66.43;101021.44;3554936;40;20459;-43
2021/07/23 07:49:26;;;;;;;15.18;11.68;;;;;;;24.50;62.98;101018.94;3554825;40;20053;-43
2021/07/23 07:51:53;;;;;;;18.92;12.77;;;;;;;24.34;62.77;101021.03;3553510;40;20075;-43
2021/07/23 07:54:20;;;;;;;16.77;13.18;;;;;;;23.96;64.61;101015.03;3554601;40;20105;-43
2021/07/23 07:56:47;;;;;;;15.30;12.38;;;;;;;24.39;63.61;101025.28;3555126;40;20054;-43
2021/07/23 07:59:13;;;;;;;18.67;12.15;;;;;;;23.96;61.52;101022.88;3555150;40;20338;-43
2021/07/23 08:01:40;;;;;;;18.83;12.90;;;;;;;24.55;60.11;101022.28;3551375;40;20064;-43
2021/07/23 08:04:08;;;;;;;16.05;12.10;;;;;;;24.21;62.55;101019.63;3554594;40;20569;-43
2021/07/23 08:06:37;;;;;;;15.95;12.38;;;;;;;24.54;61.12;101024.03;3554928;40;20355;-43
2021/07/23 08:09:08;;;;;;;17.10;13.40;;;;;;;24.12;62.58;101020.72;3554495;40;20053;-44
2021/07/23 08:11:35;;;;;;;18.55;12.15;;;;;;;24.73;62.45;101013.03;3554483;40;20053;-43
2021/07/23 08:14:03;;;;;;;18.92;12.68;;;;;;;24.23;62.99;101018.72;3554827;40;20045;-45
2021/07/23 08:16:30;;;;;;;48.03;15.75;;;;;;;24.77;63.09;101018.16;3554361;40;20093;-43
2021/07/23 08:19:01;;;;;;;20.45;13.45;;;;;;;24.60;61.07;101016.00;3554640;40;20062;-43
2021/07/23 08:21:30;;;;;;;17.52;11.93;;;;;;;24.45;61.79;101018.16;3554456;40;20089;-43
2021/07/23 08:24:00;;;;;;;17.30;11.73;;;;;;;24.74;60.78;101020.88;3554589;40;20355;-45
2021/07/23 08:26:28;;;;;;;13.90;11.32;;;;;;;24.53;62.46;101014.44;3554463;40;20097;-43
2021/07/23 08:28:55;;;;;;;15.93;10.57;;;;;;;24.81;60.14;101024.16;3554261;40;20085;-44
2021/07/23 08:31:22;;;;;;;14.35;11.52;;;;;;;24.94;60.65;101022.94;3554465;40;20082;-43
2021/07/23 08:33:49;;;;;;;16.70;12.20;;;;;;;24.93;58.33;101020.34;3554121;40;20045;-44
2021/07/23 08:36:16;;;;;;;24.02;16.35;;;;;;;24.98;55.42;101011.47;3554807;40;20065;-43
2021/07/23 08:38:43;;;;;;;19.88;14.52;;;;;;;25.34;54.73;101014.78;3554714;40;20094;-43
2021/07/23 08:41:12;;;;;;;18.67;13.63;;;;;;;25.17;57.83;101014.44;3550696;40;20439;-45
2021/07/23 08:43:39;;;;;;;16.15;13.32;;;;;;;25.46;58.03;101008.28;3554420;40;20416;-43
2021/07/23 08:46:08;;;;;;;20.73;12.35;;;;;;;25.54;59.06;101021.19;3554481;40;20081;-48
2021/07/23 08:48:35;;;;;;;30.67;12.20;;;;;;;25.17;61.38;101018.81;3554234;40;20042;-43
2021/07/23 08:51:02;;;;;;;26.20;14.73;;;;;;;24.77;61.61;101018.16;3554688;40;20041;-45
2021/07/23 08:53:29;;;;;;;18.17;14.07;;;;;;;24.73;60.94;101018.28;3557485;40;20045;-43
2021/07/23 08:55:56;;;;;;;45.55;16.80;;;;;;;24.33;65.41;101021.94;3557264;40;20385;-44
2021/07/23 08:58:23;;;;;;;21.70;13.82;;;;;;;24.30;64.08;101014.16;3554142;40;20057;-43
2021/07/23 09:00:57;;;;;;;16.85;12.45;;;;;;;24.24;63.97;101009.09;3554421;40;20261;-44
2021/07/23 09:03:28;;;;;;;17.88;13.27;;;;;;;24.30;63.50;101009.78;3554304;40;20045;-44
2021/07/23 09:05:57;;;;;;;16.77;13.43;;;;;;;24.44;63.29;101005.97;3554354;40;20057;-44
2021/07/23 09:08:24;;;;;;;20.23;13.60;;;;;;;24.62;59.93;101010.72;3554118;40;20052;-44
2021/07/23 09:11:05;;;;;;;20.25;14.05;;;;;;;24.73;60.75;101000.81;3554435;40;20061;-43
2021/07/23 09:13:32;;;;;;;18.92;14.07;;;;;;;24.45;61.90;101000.72;3554116;40;20093;-44
2021/07/23 09:15:59;;;;;;;23.75;14.93;;;;;;;25.36;58.42;100997.22;3554311;40;20062;-44
2021/07/23 09:18:33;;;;;;;18.63;13.88;;;;;;;25.59;60.61;101001.75;3553664;40;20068;-43
2021/07/23 09:21:05;;;;;;;17.95;13.98;;;;;;;26.10;59.39;100998.38;3554802;40;20054;-43
2021/07/23 09:23:37;;;;;;;18.80;13.30;;;;;;;26.48;55.09;100993.59;3554180;40;20077;-43
2021/07/23 09:26:07;;;;;;;19.00;14.70;;;;;;;25.19;56.93;100986.44;3553957;40;20425;-43
2021/07/23 09:28:38;;;;;;;18.27;13.27;;;;;;;26.07;53.58;100985.38;3553919;40;20723;-43
2021/07/23 09:31:08;;;;;;;16.73;12.45;;;;;;;26.58;56.08;100992.38;3554137;40;20445;-43
2021/07/23 09:33:39;;;;;;;15.15;13.23;;;;;;;26.07;56.57;100982.75;3554025;40;20059;-44
2021/07/23 09:36:13;;;;;;;18.60;14.82;;;;;;;25.55;55.38;100988.78;3554244;40;20053;-43
2021/07/23 09:38:45;;;;;;;19.15;14.48;;;;;;;27.01;53.63;100980.25;3553896;40;20141;-44
2021/07/23 09:41:26;;;;;;;21.35;13.05;;;;;;;26.78;53.96;100990.78;3550374;40;20101;-43
2021/07/23 09:44:04;;;;;;;19.15;13.88;;;;;;;26.72;55.26;100975.25;3554000;40;20042;-43
2021/07/23 09:46:39;;;;;;;17.48;13.45;;;;;;;26.32;53.89;100979.25;3553905;40;20077;-43
2021/07/23 09:49:24;;;;;;;15.55;13.00;;;;;;;25.86;57.64;100975.56;3554014;40;20062;-44
2021/07/23 09:51:55;;;;;;;17.38;13.95;;;;;;;26.22;53.55;100972.63;3554098;40;20398;-44
2021/07/23 09:54:22;;;;;;;19.15;13.52;;;;;;;25.89;56.58;100978.97;3553951;40;20411;-43
2021/07/23 09:56:50;;;;;;;15.43;12.40;;;;;;;25.93;58.36;100978.84;3553751;40;20416;-43
2021/07/23 09:59:33;;;;;;;15.98;12.48;;;;;;;26.03;58.10;100973.25;3553728;40;20098;-43
2021/07/23 10:02:01;;;;;;;15.88;11.63;;;;;;;26.39;55.74;100972.88;3554330;40;20495;-43
2021/07/23 10:05:01;;;;;;;15.30;12.45;;;;;;;26.30;55.15;100967.94;3554115;40;20052;-43
2021/07/23 10:07:38;;;;;;;21.33;12.20;;;;;;;26.79;53.96;100974.09;3554043;40;20088;-43
2021/07/23 10:10:11;;;;;;;16.58;12.15;;;;;;;27.73;50.80;100971.34;3554404;40;20042;-43
2021/07/23 10:12:44;;;;;;;17.75;12.35;;;;;;;27.36;48.28;100978.03;3554154;40;20643;-43
2021/07/23 10:15:13;;;;;;;17.02;12.73;;;;;;;26.75;51.55;100965.44;3550228;40;20066;-43
2021/07/23 10:17:40;;;;;;;19.70;13.32;;;;;;;26.05;51.82;100970.56;3553981;40;20093;-43
2021/07/23 10:20:08;;;;;;;14.75;13.15;;;;;;;27.61;49.74;100968.28;3554016;40;20111;-43
2021/07/23 10:22:41;;;;;;;14.98;13.32;;;;;;;29.37;44.96;100975.47;3553617;40;20082;-43
2021/07/23 10:25:08;;;;;;;15.10;12.55;;;;;;;31.33;42.72;100974.09;3553648;40;20093;-44
2021/07/23 10:27:35;;;;;;;14.02;12.13;;;;;;;31.33;40.63;100979.38;3553727;40;20080;-43
2021/07/23 10:30:03;;;;;;;12.93;11.55;;;;;;;32.83;38.04;100978.44;3554539;40;20089;-46
2021/07/23 10:32:35;;;;;;;14.07;11.55;;;;;;;33.69;36.89;100965.78;3555036;40;20054;-43
2021/07/23 10:37:32;;;;;;;12.75;11.13;;;;;;;34.47;34.19;100972.94;3553926;40;20050;-46
2021/07/23 10:40:09;;;;;;;13.15;11.77;;;;;;;32.74;34.42;100972.84;3554457;40;20064;-46
2021/07/23 10:42:39;;;;;;;12.38;11.18;;;;;;;31.67;37.37;100966.88;3554695;40;20086;-46
2021/07/23 10:45:27;;;;;;;17.02;12.02;;;;;;;30.53;40.30;100953.78;3553980;40;20053;-47
2021/07/23 10:47:54;;;;;;;13.10;11.80;;;;;;;29.83;41.14;100954.78;3554052;40;20466;-46
2021/07/23 10:50:24;;;;;;;14.52;11.48;;;;;;;28.97;44.71;100948.34;3554206;40;20085;-49
2021/07/23 10:53:12;;;;;;;14.32;11.18;;;;;;;28.91;42.47;100943.34;3553830;40;20298;-47
2021/07/23 10:55:50;;;;;;;15.38;11.35;;;;;;;27.96;46.34;100949.31;3553441;40;20089;-48
2021/07/23 10:58:27;;;;;;;16.67;11.60;;;;;;;29.05;44.22;100943.56;3545163;40;20046;-47
2021/07/23 11:00:58;;;;;;;19.38;11.30;;;;;;;28.92;43.41;100945.91;3545284;40;20460;-47
2021/07/23 11:03:35;;;;;;;16.17;11.80;;;;;;;29.15;44.98;100936.94;3545466;40;20083;-47
2021/07/23 11:06:18;;;;;;;14.38;11.98;;;;;;;29.61;41.10;100941.78;3545362;40;20398;-49
2021/07/23 11:08:52;;;;;;;13.45;11.38;;;;;;;31.03;39.03;100947.56;3545518;40;20495;-51
2021/07/23 11:11:27;;;;;;;14.18;11.43;;;;;;;30.30;39.09;100946.22;3545299;40;20057;-49
2021/07/23 11:13:54;;;;;;;14.88;11.85;;;;;;;29.56;39.47;100939.38;3545273;40;20089;-48